Time;durP1;ratioP1;P1;durP2;ratioP2;P2;SDS_P1;SDS_P2;PMS_P1;PMS_P2;Temp;Humidity;BMP_temperature;BMP_pressure;BME280_temperature;BME280_humidity;BME280_pressure;Samples;Min_cycle;Max_cycle;Signal;HPM_P1;HPM_P2
2022/12/31 00:01:17;;;;;;;14.93;3.90;;;;;;;;;;6283835;28;20229;-87
2022/12/31 00:04:24;;;;;;;3.73;3.17;;;;;;;;;;6276420;28;20261;-84
2022/12/31 00:07:30;;;;;;;18.93;4.00;;;;;;;;;;6295563;28;20240;-88
2022/12/31 00:10:40;;;;;;;10.00;3.53;;;;;;;;;;6278799;28;20226;-86
2022/12/31 00:13:48;;;;;;;13.53;3.80;;;;;;;;;;6260245;28;20241;-87
2022/12/31 00:16:54;;;;;;;9.33;3.17;;;;;;;;;;6295690;28;20230;-87
2022/12/31 00:19:59;;;;;;;14.37;3.87;;;;;;;;;;6294262;28;20242;-87
2022/12/31 00:23:05;;;;;;;14.03;3.80;;;;;;;;;;6295426;28;20326;-88
2022/12/31 00:26:13;;;;;;;12.10;3.87;;;;;;;;;;6278676;28;20230;-87
2022/12/31 00:29:20;;;;;;;25.10;4.80;;;;;;;;;;6278648;28;20223;-87
2022/12/31 00:32:26;;;;;;;8.30;3.70;;;;;;;;;;6294762;28;20456;-87
2022/12/31 00:35:33;;;;;;;7.87;4.03;;;;;;;;;;6261512;28;20557;-89
2022/12/31 00:38:40;;;;;;;13.57;3.97;;;;;;;;;;6277231;28;20298;-87
2022/12/31 00:41:45;;;;;;;15.27;4.00;;;;;;;;;;6260597;28;20240;-87
2022/12/31 00:44:53;;;;;;;11.43;3.87;;;;;;;;;;6277115;28;20225;-88
2022/12/31 00:47:58;;;;;;;15.17;4.03;;;;;;;;;;6276515;28;20225;-88
2022/12/31 00:51:05;;;;;;;11.17;3.70;;;;;;;;;;6293403;28;20239;-88
2022/12/31 00:54:12;;;;;;;11.00;3.40;;;;;;;;;;6274835;28;20331;-86
2022/12/31 00:57:18;;;;;;;15.10;3.37;;;;;;;;;;6267161;28;20279;-87
2022/12/31 01:00:25;;;;;;;13.10;3.50;;;;;;;;;;6268935;28;20278;-86
2022/12/31 01:03:31;;;;;;;8.00;3.80;;;;;;;;;;6290770;28;20278;-87
2022/12/31 01:06:37;;;;;;;17.57;4.30;;;;;;;;;;6283406;28;20232;-86
2022/12/31 01:09:43;;;;;;;8.00;3.97;;;;;;;;;;6270235;28;20245;-88
2022/12/31 01:12:49;;;;;;;12.03;4.50;;;;;;;;;;6268170;28;20245;-86
2022/12/31 01:15:56;;;;;;;9.30;3.97;;;;;;;;;;6295249;28;20253;-87
2022/12/31 01:19:05;;;;;;;10.27;4.03;;;;;;;;;;6281626;28;20289;-87
2022/12/31 01:22:11;;;;;;;10.40;3.10;;;;;;;;;;6299319;28;20239;-86
2022/12/31 01:25:19;;;;;;;18.60;4.17;;;;;;;;;;6299324;28;20285;-87
2022/12/31 01:28:25;;;;;;;13.83;4.00;;;;;;;;;;6265390;28;20276;-86
2022/12/31 01:31:32;;;;;;;9.93;3.30;;;;;;;;;;6279474;28;20652;-88
2022/12/31 01:34:38;;;;;;;8.30;4.20;;;;;;;;;;6289652;28;20262;-88
2022/12/31 01:37:44;;;;;;;10.30;3.30;;;;;;;;;;6271253;28;20331;-87
2022/12/31 01:40:50;;;;;;;13.73;4.47;;;;;;;;;;6270897;28;20269;-86
2022/12/31 01:43:57;;;;;;;9.63;3.60;;;;;;;;;;6272165;28;20490;-88
2022/12/31 01:47:10;;;;;;;9.00;3.73;;;;;;;;;;6273051;28;20271;-88
2022/12/31 01:50:19;;;;;;;5.27;2.70;;;;;;;;;;6290391;28;20253;-87
2022/12/31 01:53:25;;;;;;;5.00;2.83;;;;;;;;;;6275521;28;20282;-86
2022/12/31 01:56:31;;;;;;;14.23;3.80;;;;;;;;;;6294448;28;20258;-86
2022/12/31 01:59:37;;;;;;;15.23;3.60;;;;;;;;;;6292248;28;20297;-89
2022/12/31 02:03:05;;;;;;;7.80;2.87;;;;;;;;;;6270900;28;20284;-87
2022/12/31 02:06:15;;;;;;;18.40;3.83;;;;;;;;;;6291899;28;20516;-81
2022/12/31 02:09:20;;;;;;;14.00;3.60;;;;;;;;;;6286082;28;20269;-81
2022/12/31 02:12:25;;;;;;;12.27;3.80;;;;;;;;;;6277063;28;20266;-81
2022/12/31 02:15:38;;;;;;;11.67;3.93;;;;;;;;;;6261300;28;20275;-81
2022/12/31 02:18:50;;;;;;;13.07;3.70;;;;;;;;;;6261326;28;20607;-82
2022/12/31 02:22:00;;;;;;;14.40;2.80;;;;;;;;;;6259987;28;20264;-81
2022/12/31 02:25:32;;;;;;;14.87;3.50;;;;;;;;;;6284845;28;20269;-81
2022/12/31 02:28:55;;;;;;;9.83;3.30;;;;;;;;;;6284292;28;20273;-81
2022/12/31 02:32:04;;;;;;;8.43;2.90;;;;;;;;;;6285404;28;20265;-80
2022/12/31 02:35:13;;;;;;;7.97;3.33;;;;;;;;;;6285046;28;20297;-81
2022/12/31 02:38:21;;;;;;;9.83;3.43;;;;;;;;;;6284779;28;20265;-81
2022/12/31 02:44:49;;;;;;;8.60;3.40;;;;;;;;;;6284903;28;20280;-81
2022/12/31 02:48:10;;;;;;;7.20;3.20;;;;;;;;;;6285443;28;20268;-81
2022/12/31 02:51:26;;;;;;;10.70;3.73;;;;;;;;;;6285470;28;20269;-81
2022/12/31 02:54:36;;;;;;;7.70;3.00;;;;;;;;;;6285128;28;20423;-80
2022/12/31 02:57:46;;;;;;;5.40;2.53;;;;;;;;;;6266771;28;20258;-80
2022/12/31 03:04:35;;;;;;;5.10;2.20;;;;;;;;;;6225104;28;1199279;-80
2022/12/31 03:07:41;;;;;;;3.40;3.10;;;;;;;;;;6285637;28;20266;-80
2022/12/31 03:10:46;;;;;;;6.60;3.00;;;;;;;;;;6285440;28;20585;-80
2022/12/31 03:13:50;;;;;;;6.83;2.70;;;;;;;;;;6285366;28;20282;-80
2022/12/31 03:16:56;;;;;;;5.53;2.77;;;;;;;;;;6285233;28;20277;-80
2022/12/31 03:23:27;;;;;;;6.97;3.03;;;;;;;;;;6290199;28;20268;-81
2022/12/31 03:26:31;;;;;;;11.13;2.93;;;;;;;;;;6272630;28;20435;-81
2022/12/31 03:29:36;;;;;;;8.73;2.93;;;;;;;;;;6290345;28;20276;-81
2022/12/31 03:32:42;;;;;;;9.83;4.10;;;;;;;;;;6289941;28;20565;-81
2022/12/31 03:35:49;;;;;;;3.37;2.00;;;;;;;;;;6290028;28;20265;-81
2022/12/31 03:38:54;;;;;;;7.60;3.10;;;;;;;;;;6290047;28;20472;-81
2022/12/31 03:42:00;;;;;;;7.13;3.27;;;;;;;;;;6289840;28;20283;-81
2022/12/31 03:45:06;;;;;;;9.60;2.77;;;;;;;;;;6290084;28;20290;-81
2022/12/31 03:48:14;;;;;;;7.47;2.90;;;;;;;;;;6289948;28;20270;-81
2022/12/31 03:51:20;;;;;;;7.57;3.00;;;;;;;;;;6290047;28;20275;-81
2022/12/31 03:54:26;;;;;;;5.87;2.87;;;;;;;;;;6290065;28;20265;-80
2022/12/31 03:57:32;;;;;;;16.67;3.73;;;;;;;;;;6290574;28;20276;-81
2022/12/31 04:00:37;;;;;;;9.43;2.97;;;;;;;;;;6299537;28;20281;-79
2022/12/31 04:03:43;;;;;;;6.27;3.07;;;;;;;;;;6285611;28;20294;-80
2022/12/31 04:06:50;;;;;;;5.83;3.23;;;;;;;;;;6294296;28;20277;-81
2022/12/31 04:09:55;;;;;;;7.07;3.10;;;;;;;;;;6288946;28;20273;-80
2022/12/31 04:13:03;;;;;;;5.10;2.60;;;;;;;;;;6271630;28;20270;-81
2022/12/31 04:16:08;;;;;;;3.23;2.50;;;;;;;;;;6288706;28;20269;-80
2022/12/31 04:19:14;;;;;;;3.50;2.80;;;;;;;;;;6271512;28;20270;-81
2022/12/31 04:22:21;;;;;;;3.50;2.07;;;;;;;;;;6289021;28;20474;-80
2022/12/31 04:25:26;;;;;;;8.00;2.63;;;;;;;;;;6271094;28;20290;-80
2022/12/31 04:28:31;;;;;;;5.27;2.50;;;;;;;;;;6289034;28;20286;-81
2022/12/31 04:31:36;;;;;;;5.50;2.50;;;;;;;;;;6288058;28;20282;-81
2022/12/31 04:34:41;;;;;;;2.77;2.20;;;;;;;;;;6271268;28;20456;-81
2022/12/31 04:37:48;;;;;;;6.13;2.57;;;;;;;;;;6288769;28;20547;-82
2022/12/31 04:44:16;;;;;;;3.67;2.20;;;;;;;;;;6290346;28;20266;-80
2022/12/31 04:47:21;;;;;;;7.67;3.17;;;;;;;;;;6289821;28;20465;-81
2022/12/31 04:50:28;;;;;;;8.27;2.80;;;;;;;;;;6288547;28;20278;-81
2022/12/31 04:53:34;;;;;;;8.47;3.10;;;;;;;;;;6270450;28;20274;-81
2022/12/31 04:56:39;;;;;;;9.43;3.30;;;;;;;;;;6288143;28;20304;-81
2022/12/31 04:59:44;;;;;;;5.17;3.43;;;;;;;;;;6288891;28;20285;-81
2022/12/31 05:02:50;;;;;;;7.93;3.07;;;;;;;;;;6288575;28;20292;-80
2022/12/31 05:06:02;;;;;;;9.60;2.60;;;;;;;;;;6288396;28;20266;-80
2022/12/31 05:09:08;;;;;;;7.03;2.80;;;;;;;;;;6286411;28;20290;-80
2022/12/31 05:12:13;;;;;;;7.40;2.70;;;;;;;;;;6288079;28;20267;-80
2022/12/31 05:15:19;;;;;;;3.80;2.60;;;;;;;;;;6287365;28;20270;-81
2022/12/31 05:18:24;;;;;;;3.23;2.33;;;;;;;;;;6286378;28;20562;-80
2022/12/31 05:21:29;;;;;;;6.37;2.70;;;;;;;;;;6287912;28;20292;-80
2022/12/31 05:24:36;;;;;;;5.10;2.37;;;;;;;;;;6287382;28;20271;-81
2022/12/31 05:27:41;;;;;;;5.63;2.43;;;;;;;;;;6287766;28;20276;-80
2022/12/31 05:30:48;;;;;;;6.03;1.90;;;;;;;;;;6287897;28;20324;-82
2022/12/31 05:33:54;;;;;;;4.60;2.60;;;;;;;;;;6287669;28;20274;-82
2022/12/31 05:36:59;;;;;;;8.00;2.70;;;;;;;;;;6287419;28;20270;-82
2022/12/31 05:40:07;;;;;;;6.43;2.53;;;;;;;;;;6287069;28;20268;-81
2022/12/31 05:43:12;;;;;;;2.20;2.07;;;;;;;;;;6286879;28;20274;-80
2022/12/31 05:46:17;;;;;;;4.83;2.17;;;;;;;;;;6287282;28;20279;-82
2022/12/31 05:49:22;;;;;;;2.77;2.57;;;;;;;;;;6287784;28;20286;-81
2022/12/31 05:52:27;;;;;;;7.83;2.50;;;;;;;;;;6290803;28;20283;-81
2022/12/31 05:55:34;;;;;;;3.43;2.47;;;;;;;;;;6290346;28;20273;-82
2022/12/31 05:58:39;;;;;;;6.73;2.50;;;;;;;;;;6290425;28;20270;-80
2022/12/31 06:01:44;;;;;;;7.43;2.30;;;;;;;;;;6292771;28;20284;-80
2022/12/31 06:04:49;;;;;;;4.70;2.37;;;;;;;;;;6303814;28;20253;-79
2022/12/31 06:07:55;;;;;;;5.17;2.40;;;;;;;;;;6303586;28;20216;-80
2022/12/31 06:11:02;;;;;;;2.80;2.07;;;;;;;;;;6297006;28;20234;-82
2022/12/31 06:14:07;;;;;;;3.87;2.20;;;;;;;;;;6287537;28;20265;-81
2022/12/31 06:17:12;;;;;;;3.80;2.30;;;;;;;;;;6286500;28;20270;-81
2022/12/31 06:20:17;;;;;;;4.47;2.03;;;;;;;;;;6287030;28;20284;-82
2022/12/31 06:23:22;;;;;;;4.00;2.10;;;;;;;;;;6287120;28;20266;-81
2022/12/31 06:26:29;;;;;;;4.87;2.17;;;;;;;;;;6286605;28;20266;-82
2022/12/31 06:29:34;;;;;;;2.73;2.00;;;;;;;;;;6286226;28;20278;-81
2022/12/31 06:32:39;;;;;;;4.17;1.70;;;;;;;;;;6285839;28;20274;-80
2022/12/31 06:35:44;;;;;;;2.53;2.23;;;;;;;;;;6285721;28;20265;-81
2022/12/31 06:38:50;;;;;;;5.70;1.97;;;;;;;;;;6285874;28;20274;-81
2022/12/31 06:41:56;;;;;;;3.30;1.97;;;;;;;;;;6285570;28;20299;-81
2022/12/31 06:45:01;;;;;;;4.90;2.17;;;;;;;;;;6285268;28;20278;-80
2022/12/31 06:48:07;;;;;;;1.87;1.77;;;;;;;;;;6285568;28;20439;-81
2022/12/31 06:51:14;;;;;;;3.63;1.90;;;;;;;;;;6285272;28;20272;-81
2022/12/31 06:54:21;;;;;;;2.23;2.00;;;;;;;;;;6285553;28;20270;-80
2022/12/31 06:57:28;;;;;;;4.20;1.70;;;;;;;;;;6286085;28;20265;-82
2022/12/31 07:00:36;;;;;;;7.73;2.03;;;;;;;;;;6285494;28;20273;-80
2022/12/31 07:03:45;;;;;;;2.30;1.80;;;;;;;;;;6284443;28;20292;-82
2022/12/31 07:06:54;;;;;;;6.10;2.00;;;;;;;;;;6285851;28;20269;-81
2022/12/31 07:10:08;;;;;;;5.63;1.70;;;;;;;;;;6285424;28;20270;-81
2022/12/31 07:13:33;;;;;;;5.93;1.90;;;;;;;;;;6267735;28;20301;-81
2022/12/31 07:16:50;;;;;;;3.37;2.03;;;;;;;;;;6285439;28;20300;-81
2022/12/31 07:20:00;;;;;;;2.33;1.87;;;;;;;;;;6285883;28;20363;-81
2022/12/31 07:23:07;;;;;;;4.77;1.80;;;;;;;;;;6284722;28;20306;-80
2022/12/31 07:26:18;;;;;;;2.57;1.70;;;;;;;;;;6285425;28;20267;-81
2022/12/31 07:29:33;;;;;;;3.60;1.43;;;;;;;;;;6285191;28;20582;-81
2022/12/31 07:33:02;;;;;;;3.13;1.50;;;;;;;;;;6267538;28;20304;-80
2022/12/31 07:36:14;;;;;;;1.90;1.80;;;;;;;;;;6285022;28;20270;-81
2022/12/31 07:39:26;;;;;;;4.30;1.60;;;;;;;;;;6285101;28;20265;-81
2022/12/31 07:42:36;;;;;;;5.87;1.57;;;;;;;;;;6284535;28;20287;-81
2022/12/31 07:45:48;;;;;;;4.67;1.77;;;;;;;;;;6285060;28;20272;-81
2022/12/31 07:48:54;;;;;;;2.80;1.60;;;;;;;;;;6285324;28;20338;-81
2022/12/31 07:52:00;;;;;;;3.63;1.30;;;;;;;;;;6284773;28;20277;-81
2022/12/31 07:55:06;;;;;;;4.13;1.80;;;;;;;;;;6285081;28;20284;-82
2022/12/31 07:58:20;;;;;;;6.43;1.50;;;;;;;;;;6267860;28;20281;-81
2022/12/31 08:01:37;;;;;;;1.93;1.70;;;;;;;;;;6285254;28;20274;-81
2022/12/31 08:04:47;;;;;;;4.57;1.53;;;;;;;;;;6284457;28;20297;-81
2022/12/31 08:07:58;;;;;;;1.43;1.33;;;;;;;;;;6289061;28;20269;-81
2022/12/31 08:11:11;;;;;;;3.80;1.60;;;;;;;;;;6289119;28;20270;-81
2022/12/31 08:14:17;;;;;;;6.57;1.67;;;;;;;;;;6289287;28;20277;-81
2022/12/31 08:17:24;;;;;;;2.67;1.40;;;;;;;;;;6289217;28;20278;-81
2022/12/31 08:20:31;;;;;;;2.57;1.50;;;;;;;;;;6288934;28;20340;-82
2022/12/31 08:23:39;;;;;;;1.70;1.60;;;;;;;;;;6271510;28;20290;-82
2022/12/31 08:26:52;;;;;;;2.13;1.73;;;;;;;;;;6288534;28;20274;-80
2022/12/31 08:30:02;;;;;;;3.83;1.50;;;;;;;;;;6288446;28;20266;-80
2022/12/31 08:33:13;;;;;;;7.50;1.60;;;;;;;;;;6289232;28;20279;-81
2022/12/31 08:36:26;;;;;;;5.03;1.43;;;;;;;;;;6288276;28;20574;-82
2022/12/31 08:39:41;;;;;;;5.93;1.57;;;;;;;;;;6288822;28;20553;-81
2022/12/31 08:42:58;;;;;;;5.60;1.40;;;;;;;;;;6288402;28;20302;-80
2022/12/31 08:46:04;;;;;;;9.70;1.70;;;;;;;;;;6288453;28;20268;-81
2022/12/31 08:49:13;;;;;;;4.13;1.67;;;;;;;;;;6288191;28;20270;-81
2022/12/31 08:52:23;;;;;;;5.20;1.63;;;;;;;;;;6288330;28;20423;-81
2022/12/31 08:55:30;;;;;;;2.90;1.50;;;;;;;;;;6288258;28;20275;-82
2022/12/31 08:58:44;;;;;;;5.30;1.77;;;;;;;;;;6270652;28;20270;-81
2022/12/31 09:02:26;;;;;;;5.23;1.80;;;;;;;;;;6288074;28;20287;-80
2022/12/31 09:05:39;;;;;;;7.37;1.87;;;;;;;;;;6270429;28;20297;-82
2022/12/31 09:08:50;;;;;;;11.47;1.50;;;;;;;;;;6270531;28;20270;-80
2022/12/31 09:12:04;;;;;;;8.77;1.83;;;;;;;;;;6270199;28;20454;-82
2022/12/31 09:15:13;;;;;;;9.67;1.60;;;;;;;;;;6286716;28;20273;-80
2022/12/31 09:18:18;;;;;;;4.73;1.50;;;;;;;;;;6287019;28;20265;-81
2022/12/31 09:21:25;;;;;;;5.57;1.93;;;;;;;;;;6287473;28;20278;-81
2022/12/31 09:24:31;;;;;;;6.10;1.70;;;;;;;;;;6287941;28;20298;-81
2022/12/31 09:27:40;;;;;;;5.47;1.70;;;;;;;;;;6270703;28;20274;-81
2022/12/31 09:30:51;;;;;;;6.57;1.80;;;;;;;;;;6287555;28;20265;-82
2022/12/31 09:34:00;;;;;;;5.33;2.03;;;;;;;;;;6287710;28;20278;-82
2022/12/31 09:37:11;;;;;;;2.47;1.70;;;;;;;;;;6287701;28;20269;-82
2022/12/31 09:40:49;;;;;;;6.50;2.17;;;;;;;;;;6287267;28;20269;-82
2022/12/31 09:44:39;;;;;;;12.43;2.27;;;;;;;;;;6287179;28;20290;-82
2022/12/31 09:48:05;;;;;;;4.20;1.60;;;;;;;;;;6287864;28;20266;-81
2022/12/31 09:51:20;;;;;;;8.53;1.80;;;;;;;;;;6291131;28;20270;-82
2022/12/31 09:54:40;;;;;;;13.20;2.13;;;;;;;;;;6290727;28;20261;-81
2022/12/31 09:57:54;;;;;;;6.00;2.00;;;;;;;;;;6286651;28;20277;-81
2022/12/31 10:01:04;;;;;;;4.90;1.70;;;;;;;;;;6286632;28;20275;-80
2022/12/31 10:04:54;;;;;;;4.83;1.53;;;;;;;;;;6287126;28;20308;-80
2022/12/31 10:08:04;;;;;;;5.10;1.87;;;;;;;;;;6267474;28;20273;-81
2022/12/31 10:11:19;;;;;;;3.60;2.10;;;;;;;;;;6287288;28;20274;-81
2022/12/31 10:14:36;;;;;;;7.80;1.63;;;;;;;;;;6287883;28;20274;-81
2022/12/31 10:17:59;;;;;;;6.33;1.67;;;;;;;;;;6270159;28;20265;-81
2022/12/31 10:21:19;;;;;;;9.63;1.90;;;;;;;;;;6287331;28;20275;-81
2022/12/31 10:24:45;;;;;;;6.80;2.13;;;;;;;;;;6286659;28;20299;-81
2022/12/31 10:27:58;;;;;;;6.63;1.87;;;;;;;;;;6286247;28;20271;-82
2022/12/31 10:31:10;;;;;;;8.77;2.00;;;;;;;;;;6297276;28;20290;-80
2022/12/31 10:34:17;;;;;;;7.97;2.13;;;;;;;;;;6302067;28;20446;-80
2022/12/31 10:37:26;;;;;;;10.97;2.23;;;;;;;;;;6290366;28;20272;-82
2022/12/31 10:40:45;;;;;;;8.93;1.87;;;;;;;;;;6286220;28;20555;-81
2022/12/31 10:44:28;;;;;;;12.43;2.10;;;;;;;;;;6285632;28;20285;-82
2022/12/31 10:48:08;;;;;;;9.33;1.90;;;;;;;;;;6283715;28;20275;-81
2022/12/31 10:51:45;;;;;;;8.77;2.03;;;;;;;;;;6286016;28;20270;-81
2022/12/31 10:55:24;;;;;;;10.17;2.30;;;;;;;;;;6284891;28;20465;-81
2022/12/31 10:58:59;;;;;;;6.23;2.73;;;;;;;;;;6285682;28;20267;-81
2022/12/31 11:02:29;;;;;;;9.23;2.60;;;;;;;;;;6285172;28;20270;-82
2022/12/31 11:06:04;;;;;;;4.67;2.07;;;;;;;;;;6286063;28;20302;-81
2022/12/31 11:09:48;;;;;;;7.50;1.90;;;;;;;;;;6285658;28;20282;-81
2022/12/31 11:13:24;;;;;;;9.10;2.07;;;;;;;;;;6285902;28;20263;-82
2022/12/31 11:16:57;;;;;;;8.77;2.47;;;;;;;;;;6286582;28;20273;-81
2022/12/31 11:20:27;;;;;;;6.47;2.10;;;;;;;;;;6216264;28;20273;-81
2022/12/31 11:23:39;;;;;;;9.87;2.20;;;;;;;;;;6286028;28;20296;-83
2022/12/31 11:26:54;;;;;;;11.43;2.30;;;;;;;;;;6286266;28;20277;-81
2022/12/31 11:30:06;;;;;;;7.97;2.07;;;;;;;;;;6285367;28;20264;-81
2022/12/31 11:33:21;;;;;;;10.27;2.00;;;;;;;;;;6285531;28;20298;-82
2022/12/31 11:36:36;;;;;;;10.80;2.50;;;;;;;;;;6285066;28;20275;-81
2022/12/31 11:39:49;;;;;;;10.80;2.30;;;;;;;;;;6285953;28;20278;-81
2022/12/31 11:42:58;;;;;;;12.90;3.50;;;;;;;;;;6272658;28;20279;-81
2022/12/31 11:46:20;;;;;;;12.80;2.50;;;;;;;;;;6276382;28;20299;-82
2022/12/31 11:49:46;;;;;;;11.60;2.80;;;;;;;;;;6263876;28;20417;-81
2022/12/31 11:52:57;;;;;;;14.57;2.77;;;;;;;;;;6265990;28;20287;-81
2022/12/31 11:56:11;;;;;;;8.57;2.37;;;;;;;;;;6265390;28;20279;-81
2022/12/31 11:59:16;;;;;;;15.67;2.40;;;;;;;;;;6266362;28;20264;-81
2022/12/31 12:02:27;;;;;;;12.20;2.57;;;;;;;;;;6264931;28;20273;-82
2022/12/31 12:05:33;;;;;;;5.43;2.27;;;;;;;;;;6269067;28;20307;-81
2022/12/31 12:08:39;;;;;;;9.90;2.43;;;;;;;;;;6281572;28;20238;-80
2022/12/31 12:11:45;;;;;;;10.40;2.60;;;;;;;;;;6281072;28;20220;-81
2022/12/31 12:14:52;;;;;;;7.37;2.40;;;;;;;;;;6275110;28;20231;-81
2022/12/31 12:18:00;;;;;;;14.13;2.87;;;;;;;;;;6281363;28;20346;-82
2022/12/31 12:21:09;;;;;;;8.73;2.53;;;;;;;;;;6265278;28;20292;-82
2022/12/31 12:24:21;;;;;;;15.03;3.13;;;;;;;;;;6264113;28;20296;-82
2022/12/31 12:27:29;;;;;;;11.30;2.73;;;;;;;;;;6264630;28;20274;-83
2022/12/31 12:30:42;;;;;;;10.17;2.80;;;;;;;;;;6264045;28;20436;-82
2022/12/31 12:33:49;;;;;;;12.07;2.40;;;;;;;;;;6263967;28;20332;-81
2022/12/31 12:36:54;;;;;;;10.30;2.50;;;;;;;;;;6264391;28;20267;-82
2022/12/31 12:40:02;;;;;;;10.27;2.70;;;;;;;;;;6264515;28;20429;-82
2022/12/31 12:43:22;;;;;;;7.70;2.37;;;;;;;;;;6263850;28;20271;-81
2022/12/31 12:46:32;;;;;;;9.00;2.77;;;;;;;;;;6263409;28;20295;-81
2022/12/31 12:49:40;;;;;;;9.67;2.60;;;;;;;;;;6263724;28;20280;-81
2022/12/31 12:53:06;;;;;;;10.93;2.23;;;;;;;;;;6262890;28;20271;-81
2022/12/31 12:56:22;;;;;;;20.23;2.73;;;;;;;;;;6263816;28;20279;-80
2022/12/31 12:59:57;;;;;;;7.27;2.33;;;;;;;;;;6263375;28;20564;-81
2022/12/31 13:03:21;;;;;;;9.43;2.60;;;;;;;;;;6251432;28;20445;-81
2022/12/31 13:06:33;;;;;;;8.83;2.30;;;;;;;;;;6261679;28;20295;-82
2022/12/31 13:09:52;;;;;;;8.27;2.50;;;;;;;;;;6261756;28;20263;-82
2022/12/31 13:13:06;;;;;;;9.67;2.47;;;;;;;;;;6278524;28;20264;-82
2022/12/31 13:16:35;;;;;;;10.90;2.30;;;;;;;;;;6287931;28;20274;-82
2022/12/31 13:19:44;;;;;;;10.97;2.80;;;;;;;;;;6289165;28;20279;-80
2022/12/31 13:22:52;;;;;;;15.33;2.77;;;;;;;;;;6287760;28;20577;-81
2022/12/31 13:26:05;;;;;;;7.90;2.20;;;;;;;;;;6287743;28;20303;-81
2022/12/31 13:29:17;;;;;;;11.73;2.03;;;;;;;;;;6287234;28;20422;-81
2022/12/31 13:32:28;;;;;;;10.90;2.63;;;;;;;;;;6294864;28;20271;-81
2022/12/31 13:35:39;;;;;;;12.50;2.57;;;;;;;;;;6304509;28;20233;-80
2022/12/31 13:38:47;;;;;;;15.10;3.00;;;;;;;;;;6287274;28;20254;-81
2022/12/31 13:41:57;;;;;;;8.27;2.13;;;;;;;;;;6305073;28;20240;-80
2022/12/31 13:45:06;;;;;;;6.33;2.50;;;;;;;;;;6300218;28;20292;-82
2022/12/31 13:48:17;;;;;;;13.17;2.67;;;;;;;;;;6271162;28;20267;-82
2022/12/31 13:51:27;;;;;;;6.20;2.30;;;;;;;;;;6288466;28;20543;-81
2022/12/31 13:54:38;;;;;;;10.10;1.97;;;;;;;;;;6270569;28;20270;-81
2022/12/31 13:57:47;;;;;;;11.30;2.27;;;;;;;;;;6288146;28;20449;-80
2022/12/31 14:01:00;;;;;;;6.20;1.93;;;;;;;;;;6286746;28;20266;-80
2022/12/31 14:04:08;;;;;;;10.33;2.50;;;;;;;;;;6286024;28;20303;-82
2022/12/31 14:07:17;;;;;;;7.57;2.40;;;;;;;;;;6286338;28;20283;-81
2022/12/31 14:10:32;;;;;;;9.50;2.30;;;;;;;;;;6288529;28;20270;-80
2022/12/31 14:13:50;;;;;;;7.87;2.17;;;;;;;;;;6287186;28;20282;-81
2022/12/31 14:17:02;;;;;;;10.43;2.23;;;;;;;;;;6287113;28;20273;-81
2022/12/31 14:20:18;;;;;;;6.27;2.30;;;;;;;;;;6269047;28;20270;-82
2022/12/31 14:23:30;;;;;;;8.43;2.40;;;;;;;;;;6285714;28;20338;-81
2022/12/31 14:26:37;;;;;;;11.50;2.53;;;;;;;;;;6285903;28;20306;-81
2022/12/31 14:29:46;;;;;;;10.03;1.90;;;;;;;;;;6286414;28;20269;-81
2022/12/31 14:33:05;;;;;;;8.40;2.27;;;;;;;;;;6286344;28;20458;-81
2022/12/31 14:36:21;;;;;;;8.97;2.50;;;;;;;;;;6286730;28;20275;-81
2022/12/31 14:39:35;;;;;;;7.57;2.50;;;;;;;;;;6285786;28;20543;-82
2022/12/31 14:42:46;;;;;;;12.47;2.53;;;;;;;;;;6286300;28;20277;-81
2022/12/31 14:46:01;;;;;;;9.53;2.50;;;;;;;;;;6268497;28;20296;-82
2022/12/31 14:49:21;;;;;;;8.60;2.27;;;;;;;;;;6286415;28;20289;-81
2022/12/31 14:52:29;;;;;;;8.07;2.20;;;;;;;;;;6286407;28;20275;-81
2022/12/31 14:55:36;;;;;;;8.97;2.43;;;;;;;;;;6286801;28;20279;-81
2022/12/31 14:58:42;;;;;;;10.87;2.33;;;;;;;;;;6288709;28;20274;-80
2022/12/31 15:01:47;;;;;;;13.67;2.87;;;;;;;;;;6289345;28;20274;-80
2022/12/31 15:05:10;;;;;;;8.63;2.30;;;;;;;;;;6251033;28;20303;-81
2022/12/31 15:08:41;;;;;;;7.23;2.77;;;;;;;;;;6236807;28;20307;-80
2022/12/31 15:12:01;;;;;;;7.27;2.53;;;;;;;;;;6236167;28;20264;-81
2022/12/31 15:15:37;;;;;;;8.00;2.30;;;;;;;;;;6238367;28;20272;-81
2022/12/31 15:18:55;;;;;;;8.30;2.43;;;;;;;;;;6241175;28;20275;-81
2022/12/31 15:22:06;;;;;;;17.93;3.00;;;;;;;;;;6242253;28;20447;-81
2022/12/31 15:25:26;;;;;;;9.57;2.80;;;;;;;;;;6242124;28;20268;-81
2022/12/31 15:28:35;;;;;;;14.13;2.80;;;;;;;;;;6241534;28;20284;-82
2022/12/31 15:31:46;;;;;;;14.97;2.77;;;;;;;;;;6241292;28;20276;-82
2022/12/31 15:35:01;;;;;;;9.77;2.60;;;;;;;;;;6241302;28;20268;-81
2022/12/31 15:38:29;;;;;;;21.97;3.33;;;;;;;;;;6241184;28;20271;-82
2022/12/31 15:41:39;;;;;;;12.50;2.87;;;;;;;;;;6241186;28;20549;-82
2022/12/31 15:45:08;;;;;;;10.40;3.20;;;;;;;;;;6240926;28;20551;-81
2022/12/31 15:48:17;;;;;;;12.10;2.50;;;;;;;;;;6240987;28;20295;-81
2022/12/31 15:51:25;;;;;;;10.23;2.37;;;;;;;;;;6240635;28;20275;-81
2022/12/31 15:54:36;;;;;;;10.83;2.37;;;;;;;;;;6240658;28;20276;-82
2022/12/31 15:57:42;;;;;;;6.00;2.20;;;;;;;;;;6241284;28;20537;-82
2022/12/31 16:00:57;;;;;;;11.40;2.43;;;;;;;;;;6240919;28;20420;-82
2022/12/31 16:04:05;;;;;;;12.40;2.60;;;;;;;;;;6259023;28;20303;-82
2022/12/31 16:07:12;;;;;;;13.90;3.17;;;;;;;;;;6289821;28;20302;-82
2022/12/31 16:10:23;;;;;;;7.60;2.43;;;;;;;;;;6290186;28;20275;-82
2022/12/31 16:13:30;;;;;;;13.83;2.67;;;;;;;;;;6289711;28;20266;-82
2022/12/31 16:16:35;;;;;;;11.57;2.70;;;;;;;;;;6289482;28;20283;-82
2022/12/31 16:19:44;;;;;;;10.03;3.07;;;;;;;;;;6271743;28;20266;-81
2022/12/31 16:22:54;;;;;;;11.63;2.83;;;;;;;;;;6289784;28;20278;-81
2022/12/31 16:26:03;;;;;;;8.73;3.40;;;;;;;;;;6288154;28;20270;-82
2022/12/31 16:29:14;;;;;;;5.27;2.73;;;;;;;;;;6290001;28;20347;-81
2022/12/31 16:32:20;;;;;;;14.67;3.20;;;;;;;;;;6289762;28;20566;-81
2022/12/31 16:35:27;;;;;;;11.77;2.77;;;;;;;;;;6289345;28;20271;-81
2022/12/31 16:38:34;;;;;;;7.17;2.47;;;;;;;;;;6271561;28;20269;-82
2022/12/31 16:41:44;;;;;;;12.53;2.83;;;;;;;;;;6271467;28;20272;-81
2022/12/31 16:44:50;;;;;;;13.23;3.13;;;;;;;;;;6288477;28;20279;-81
2022/12/31 16:47:55;;;;;;;10.47;2.90;;;;;;;;;;6289282;28;20480;-81
2022/12/31 16:51:00;;;;;;;10.83;3.07;;;;;;;;;;6290084;28;20266;-81
2022/12/31 16:54:06;;;;;;;7.70;2.63;;;;;;;;;;6289073;28;20266;-81
2022/12/31 16:57:21;;;;;;;8.07;3.23;;;;;;;;;;6290036;28;20507;-81
2022/12/31 17:00:27;;;;;;;5.43;2.40;;;;;;;;;;6290200;28;20279;-81
2022/12/31 17:03:32;;;;;;;8.17;2.87;;;;;;;;;;6289983;28;20298;-80
2022/12/31 17:06:37;;;;;;;15.73;3.33;;;;;;;;;;6294096;28;20586;-81
2022/12/31 17:09:42;;;;;;;8.13;3.00;;;;;;;;;;6304129;28;20239;-82
2022/12/31 17:12:54;;;;;;;13.63;3.10;;;;;;;;;;6300192;28;20282;-81
2022/12/31 17:16:19;;;;;;;11.67;2.70;;;;;;;;;;6289672;28;20462;-81
2022/12/31 17:19:39;;;;;;;11.97;2.93;;;;;;;;;;6289888;28;20278;-82
2022/12/31 17:22:45;;;;;;;13.60;3.33;;;;;;;;;;6289525;28;20275;-82
2022/12/31 17:25:58;;;;;;;18.93;3.53;;;;;;;;;;6289426;28;20274;-83
2022/12/31 17:29:06;;;;;;;9.47;2.87;;;;;;;;;;6288947;28;20333;-82
2022/12/31 17:32:30;;;;;;;17.23;3.47;;;;;;;;;;6289045;28;20279;-81
2022/12/31 17:35:40;;;;;;;8.83;2.97;;;;;;;;;;6288865;28;20273;-81
2022/12/31 17:38:46;;;;;;;13.53;3.10;;;;;;;;;;6287654;28;20468;-81
2022/12/31 17:41:52;;;;;;;16.13;3.53;;;;;;;;;;6289260;28;20278;-81
2022/12/31 17:45:01;;;;;;;14.70;3.17;;;;;;;;;;6289261;28;20266;-82
2022/12/31 17:48:07;;;;;;;10.73;3.00;;;;;;;;;;6287231;28;20301;-82
2022/12/31 17:51:12;;;;;;;12.00;3.47;;;;;;;;;;6288420;28;20275;-82
2022/12/31 17:54:18;;;;;;;17.37;3.73;;;;;;;;;;6288797;28;20274;-82
2022/12/31 17:57:26;;;;;;;15.47;3.47;;;;;;;;;;6288558;28;20271;-81
2022/12/31 18:00:34;;;;;;;8.90;2.50;;;;;;;;;;6288449;28;20353;-82
2022/12/31 18:03:39;;;;;;;18.00;3.40;;;;;;;;;;6293930;28;20295;-81
2022/12/31 18:06:44;;;;;;;19.03;3.80;;;;;;;;;;6304162;28;20223;-82
2022/12/31 18:09:50;;;;;;;12.40;2.90;;;;;;;;;;6303890;28;20279;-80
2022/12/31 18:12:55;;;;;;;14.80;3.00;;;;;;;;;;6298727;28;20503;-81
2022/12/31 18:16:02;;;;;;;10.30;3.20;;;;;;;;;;6289270;28;20278;-81
2022/12/31 18:19:12;;;;;;;14.63;3.37;;;;;;;;;;6287634;28;20274;-82
2022/12/31 18:22:37;;;;;;;17.17;3.53;;;;;;;;;;6286511;28;20267;-82
2022/12/31 18:25:43;;;;;;;9.67;3.13;;;;;;;;;;6285556;28;20285;-81
2022/12/31 18:28:47;;;;;;;9.33;3.17;;;;;;;;;;6286320;28;20605;-81
2022/12/31 18:31:55;;;;;;;12.53;3.07;;;;;;;;;;6286320;28;20273;-81
2022/12/31 18:35:00;;;;;;;7.10;3.03;;;;;;;;;;6286654;28;20266;-82
2022/12/31 18:38:10;;;;;;;12.57;2.83;;;;;;;;;;6286345;28;20283;-81
2022/12/31 18:41:18;;;;;;;13.67;3.60;;;;;;;;;;6285675;28;20274;-81
2022/12/31 18:44:23;;;;;;;16.27;3.80;;;;;;;;;;6285218;28;20267;-82
2022/12/31 18:47:30;;;;;;;10.83;3.40;;;;;;;;;;6285758;28;20562;-81
2022/12/31 18:50:42;;;;;;;16.20;3.97;;;;;;;;;;6285812;28;20439;-82
2022/12/31 18:53:47;;;;;;;15.17;3.30;;;;;;;;;;6285396;28;20283;-82
2022/12/31 18:56:53;;;;;;;13.37;2.90;;;;;;;;;;6286875;28;20583;-82
2022/12/31 19:00:01;;;;;;;9.93;2.83;;;;;;;;;;6287392;28;20487;-82
2022/12/31 19:03:15;;;;;;;12.43;3.40;;;;;;;;;;6269555;28;20270;-82
2022/12/31 19:06:20;;;;;;;11.67;2.93;;;;;;;;;;6287141;28;20287;-81
2022/12/31 19:09:26;;;;;;;14.93;3.27;;;;;;;;;;6287618;28;20469;-81
2022/12/31 19:12:51;;;;;;;9.97;3.07;;;;;;;;;;6287119;28;20439;-81